createdAt,value
2023-01-19T00:00:21.117Z,13.40
2023-01-19T00:05:24.029Z,13.37
2023-01-19T00:10:27.209Z,13.37
2023-01-19T00:15:30.339Z,13.37
2023-01-19T00:20:33.502Z,13.32
2023-01-19T00:25:37.379Z,13.29
2023-01-19T00:30:41.196Z,13.24
2023-01-19T00:35:44.593Z,13.26
2023-01-19T00:40:48.547Z,13.23
2023-01-19T00:45:51.848Z,13.23
2023-01-19T00:50:54.848Z,13.19
2023-01-19T00:55:58.593Z,13.13
2023-01-19T01:01:01.861Z,13.12
2023-01-19T01:06:06.079Z,13.14
2023-01-19T01:11:10.645Z,13.23
2023-01-19T01:16:16.098Z,13.30
2023-01-19T01:21:19.273Z,13.32
2023-01-19T01:26:22.694Z,13.35
2023-01-19T01:31:25.637Z,13.37
2023-01-19T01:36:29.554Z,13.38
2023-01-19T01:41:32.973Z,13.32
2023-01-19T01:46:36.560Z,13.30
2023-01-19T01:51:44.170Z,13.29
2023-01-19T01:56:50.139Z,13.23
2023-01-19T02:01:57.407Z,13.17
2023-01-19T02:07:01.385Z,13.15
2023-01-19T02:12:05.363Z,13.11
2023-01-19T02:17:08.782Z,13.09
2023-01-19T02:22:39.951Z,13.04
2023-01-19T02:27:43.540Z,12.97
2023-01-19T02:32:46.937Z,12.87
2023-01-19T02:37:53.296Z,12.79
2023-01-19T02:43:00.045Z,12.74
2023-01-19T02:48:03.986Z,12.77
2023-01-19T02:53:10.736Z,12.78
2023-01-19T02:58:27.679Z,12.78
2023-01-19T03:03:40.515Z,12.73
2023-01-19T03:08:59.202Z,12.68
2023-01-19T03:14:12.465Z,12.64
2023-01-19T03:19:26.606Z,12.58
2023-01-19T03:24:34.491Z,12.52
2023-01-19T03:29:42.447Z,12.47
2023-01-19T03:34:50.077Z,12.43
2023-01-19T03:39:53.459Z,12.39
2023-01-19T03:45:00.281Z,12.39
2023-01-19T03:50:11.254Z,12.39
2023-01-19T03:55:14.482Z,12.37
2023-01-19T04:00:18.291Z,12.35
2023-01-19T04:05:22.112Z,12.31
2023-01-19T04:10:25.739Z,12.26
2023-01-19T04:15:30.773Z,12.25
2023-01-19T04:20:34.448Z,12.26
2023-01-19T04:25:38.947Z,12.25
2023-01-19T04:30:42.168Z,12.25
2023-01-19T04:35:45.910Z,12.24
2023-01-19T04:40:50.230Z,12.23
2023-01-19T04:45:53.345Z,12.20
2023-01-19T04:50:56.529Z,12.21
2023-01-19T04:55:59.850Z,12.18
2023-01-19T05:01:07.084Z,12.20
2023-01-19T05:06:10.340Z,12.24
2023-01-19T05:11:13.729Z,12.34
2023-01-19T05:16:18.555Z,12.39
2023-01-19T05:21:21.667Z,12.43
2023-01-19T05:26:24.775Z,12.45
2023-01-19T05:31:27.915Z,12.45
2023-01-19T05:36:32.011Z,12.43
2023-01-19T05:41:36.272Z,12.40
2023-01-19T05:46:40.594Z,12.41
2023-01-19T05:51:44.033Z,12.45
2023-01-19T05:56:47.310Z,12.55
2023-01-19T06:01:54.584Z,12.63
2023-01-19T06:06:57.977Z,12.76
2023-01-19T06:12:01.194Z,12.89
2023-01-19T06:17:05.048Z,13.13
2023-01-19T06:22:09.178Z,13.43
2023-01-19T06:27:12.605Z,13.84
2023-01-19T06:32:16.005Z,13.83
2023-01-19T06:37:19.167Z,13.55
2023-01-19T06:42:22.437Z,13.42
2023-01-19T06:47:26.755Z,13.38
2023-01-19T06:52:29.901Z,13.38
2023-01-19T06:57:32.892Z,13.40
2023-01-19T07:02:37.182Z,13.45
2023-01-19T07:07:40.656Z,13.53
2023-01-19T07:12:43.631Z,13.61
2023-01-19T07:17:46.977Z,13.70
2023-01-19T07:22:56.449Z,13.83
2023-01-19T07:28:01.149Z,13.90
2023-01-19T07:33:04.482Z,13.98
2023-01-19T07:38:07.985Z,14.12
2023-01-19T07:43:11.187Z,14.24
2023-01-19T07:48:14.307Z,14.30
2023-01-19T07:53:18.105Z,14.37
2023-01-19T07:58:21.720Z,14.40
2023-01-19T08:03:24.855Z,14.48
2023-01-19T08:08:29.484Z,14.52
2023-01-19T08:13:32.667Z,14.59
2023-01-19T08:18:36.508Z,14.62
2023-01-19T08:23:39.873Z,14.63
2023-01-19T08:28:43.280Z,14.73
2023-01-19T08:33:46.261Z,14.75
2023-01-19T08:38:49.579Z,14.83
2023-01-19T08:43:54.663Z,14.92
2023-01-19T08:48:58.655Z,14.99
2023-01-19T08:54:01.824Z,15.06
2023-01-19T08:59:09.762Z,15.16
2023-01-19T09:04:13.295Z,15.20
2023-01-19T09:09:16.329Z,15.28
2023-01-19T09:14:19.937Z,15.42
2023-01-19T09:19:23.520Z,15.59
2023-01-19T09:24:26.986Z,15.69
2023-01-19T09:29:30.474Z,15.82
2023-01-19T09:34:33.346Z,15.87
2023-01-19T09:39:37.726Z,16.02
2023-01-19T09:44:43.907Z,16.14
2023-01-19T09:49:55.664Z,16.23
2023-01-19T09:54:59.236Z,16.34
2023-01-19T10:00:03.406Z,16.42
2023-01-19T10:05:34.667Z,16.49
2023-01-19T10:10:41.780Z,16.49
2023-01-19T10:15:59.718Z,16.55
2023-01-19T10:21:14.829Z,16.52
2023-01-19T10:26:30.112Z,16.60
2023-01-19T10:31:36.346Z,16.65
2023-01-19T10:36:41.170Z,16.71
2023-01-19T10:41:53.731Z,16.74
2023-01-19T10:46:59.951Z,16.80
2023-01-19T10:52:06.151Z,16.90
2023-01-19T10:57:11.950Z,17.01
2023-01-19T11:02:26.930Z,17.12
2023-01-19T11:07:32.780Z,17.19
2023-01-19T11:12:43.488Z,17.25
2023-01-19T11:17:47.904Z,17.31
2023-01-19T11:23:29.040Z,17.39
2023-01-19T11:28:44.990Z,17.48
2023-01-19T11:33:50.952Z,17.49
2023-01-19T11:38:56.699Z,17.56
2023-01-19T11:44:35.366Z,17.64
2023-01-19T11:50:13.775Z,17.71
2023-01-19T11:55:46.664Z,17.73
2023-01-19T12:01:19.868Z,17.77
2023-01-19T12:06:32.408Z,17.78
2023-01-19T12:12:04.847Z,17.85
2023-01-19T12:17:16.662Z,17.83
2023-01-19T12:22:20.893Z,17.85
2023-01-19T12:27:46.561Z,17.89
2023-01-19T12:32:49.912Z,17.88
2023-01-19T12:37:53.449Z,17.88
2023-01-19T12:42:59.118Z,17.94
2023-01-19T12:48:05.181Z,17.96
2023-01-19T12:53:19.157Z,17.96
2023-01-19T12:58:25.397Z,18.00
2023-01-19T13:03:28.444Z,18.00
2023-01-19T13:08:53.082Z,17.97
2023-01-19T13:13:58.951Z,17.95
2023-01-19T13:19:06.530Z,17.92
2023-01-19T13:24:17.769Z,17.89
2023-01-19T13:29:32.748Z,17.92
2023-01-19T13:34:47.166Z,17.92
2023-01-19T13:39:54.048Z,17.88
2023-01-19T13:45:01.311Z,17.81
2023-01-19T13:50:06.647Z,17.76
2023-01-19T13:55:14.424Z,17.70
2023-01-19T14:00:26.065Z,17.64
2023-01-19T14:05:30.658Z,17.51
2023-01-19T14:10:35.927Z,17.48
2023-01-19T14:15:39.568Z,17.40
2023-01-19T14:21:03.279Z,17.27
2023-01-19T14:26:45.607Z,17.13
2023-01-19T14:32:05.264Z,16.99
2023-01-19T14:37:18.469Z,16.85
2023-01-19T14:42:32.449Z,16.71
2023-01-19T14:47:39.496Z,16.54
2023-01-19T14:52:44.394Z,16.35
2023-01-19T14:57:48.225Z,16.14
2023-01-19T15:02:51.570Z,15.94
2023-01-19T15:07:54.557Z,15.72
2023-01-19T15:12:57.874Z,15.54
2023-01-19T15:18:04.747Z,15.38
2023-01-19T15:23:10.989Z,15.29
2023-01-19T15:28:19.352Z,15.21
2023-01-19T15:33:27.138Z,15.10
2023-01-19T15:38:30.319Z,15.01
2023-01-19T15:43:34.044Z,14.96
2023-01-19T15:48:37.427Z,14.93
2023-01-19T15:53:41.106Z,14.87
2023-01-19T15:58:46.624Z,14.86
2023-01-19T16:03:50.695Z,14.86
2023-01-19T16:08:55.316Z,14.86
2023-01-19T16:13:58.667Z,14.84
2023-01-19T16:19:02.120Z,14.79
2023-01-19T16:24:05.344Z,14.74
2023-01-19T16:29:09.770Z,14.67
2023-01-19T16:34:13.689Z,14.63
2023-01-19T16:39:17.294Z,14.61
2023-01-19T16:44:20.721Z,14.59
2023-01-19T16:49:28.271Z,14.55
2023-01-19T16:54:31.773Z,14.54
2023-01-19T16:59:35.003Z,14.53
2023-01-19T17:04:38.020Z,14.62
2023-01-19T17:09:41.110Z,14.76
2023-01-19T17:14:44.399Z,14.92
2023-01-19T17:19:47.684Z,15.05
2023-01-19T17:24:51.882Z,15.16
2023-01-19T17:29:55.160Z,15.19
2023-01-19T17:35:01.725Z,15.22
2023-01-19T17:40:10.352Z,15.23
2023-01-19T17:45:13.888Z,15.22
2023-01-19T17:50:17.909Z,15.18
2023-01-19T17:55:21.340Z,15.12
2023-01-19T18:00:24.838Z,14.99
2023-01-19T18:05:28.012Z,14.87
2023-01-19T18:10:32.377Z,14.77
2023-01-19T18:15:38.642Z,14.72
2023-01-19T18:20:41.803Z,14.74
2023-01-19T18:25:45.030Z,14.83
2023-01-19T18:30:48.083Z,14.84
2023-01-19T18:35:51.786Z,14.84
2023-01-19T18:41:02.147Z,14.76
2023-01-19T18:46:05.710Z,14.79
2023-01-19T18:51:14.178Z,14.83
2023-01-19T18:56:17.583Z,14.86
2023-01-19T19:01:26.788Z,14.84
2023-01-19T19:06:30.044Z,14.81
2023-01-19T19:11:35.475Z,14.78
2023-01-19T19:16:39.551Z,14.71
2023-01-19T19:21:43.523Z,14.62
2023-01-19T19:26:46.762Z,14.53
2023-01-19T19:31:50.207Z,14.51
2023-01-19T19:36:54.743Z,14.46
2023-01-19T19:41:58.053Z,14.43
2023-01-19T19:47:01.259Z,14.37
2023-01-19T19:52:04.956Z,14.34
2023-01-19T19:57:08.170Z,14.30
2023-01-19T20:02:12.170Z,14.23
2023-01-19T20:07:17.810Z,14.20
2023-01-19T20:12:21.416Z,14.11
2023-01-19T20:17:24.911Z,14.04
2023-01-19T20:22:28.246Z,13.97
2023-01-19T20:27:31.172Z,13.87
2023-01-19T20:32:34.498Z,13.82
2023-01-19T20:37:38.097Z,13.77
2023-01-19T20:42:42.708Z,13.72
2023-01-19T20:47:45.973Z,13.71
2023-01-19T20:52:48.950Z,13.67
2023-01-19T20:57:52.395Z,13.61
2023-01-19T21:02:56.642Z,13.58
2023-01-19T21:07:59.788Z,13.55
2023-01-19T21:13:03.189Z,13.50
2023-01-19T21:18:07.426Z,13.46
2023-01-19T21:23:11.082Z,13.40
2023-01-19T21:28:14.583Z,13.39
2023-01-19T21:33:18.383Z,13.35
2023-01-19T21:38:22.703Z,13.26
2023-01-19T21:43:26.127Z,13.20
2023-01-19T21:48:31.454Z,13.13
2023-01-19T21:53:34.855Z,13.06
2023-01-19T21:58:38.534Z,13.03
2023-01-19T22:03:42.857Z,12.99
2023-01-19T22:08:46.999Z,12.96
2023-01-19T22:13:50.312Z,12.95
2023-01-19T22:18:54.693Z,12.94
2023-01-19T22:23:59.840Z,13.02
2023-01-19T22:29:04.272Z,13.07
2023-01-19T22:34:07.440Z,13.10
2023-01-19T22:39:12.245Z,13.07
2023-01-19T22:44:20.679Z,13.05
2023-01-19T22:49:23.767Z,13.06
2023-01-19T22:54:26.925Z,13.12
2023-01-19T22:59:30.245Z,13.14
2023-01-19T23:04:33.894Z,13.21
2023-01-19T23:09:38.184Z,13.21
2023-01-19T23:14:41.464Z,13.19
2023-01-19T23:19:44.491Z,13.11
2023-01-19T23:24:47.672Z,13.07
2023-01-19T23:29:50.791Z,12.95
2023-01-19T23:34:54.220Z,12.92
2023-01-19T23:39:57.291Z,12.93
2023-01-19T23:45:00.513Z,12.94
2023-01-19T23:50:05.727Z,12.95
2023-01-19T23:55:09.464Z,12.92
